You are not logged in, Click here to log in
ICAO: PHNL Country: 美國夏威夷檀香山
Latitude: 21.3245 Longitude: -157.925
Total Arrivals: 12 Total Departures: 10
Latest Arrival: HA444 (YBBN-PHNL)Arthur. Kung Latest Departure: DL1434 (PHNL-KLAX)Arthur. Kung
Scenery:
METAR : PHNL 261053Z 04009KT 10SM FEW024 FEW037 26/19 A3004

檀香山國際機場HNL